N76DN ENML-ENVA
Flight info
| Callsign | N76DN |
|---|---|
| Flight time | 1h 8m |
| Altitude | 7000 |
| Route | NELSU |
| Aircraft | S76/L-G/S |
Departure
| Time | 2026-04-23 08:51 |
|---|---|
| Airport | Molde Airport, Årø (ENML) |
Arrival
| Time | 2026-04-23 10:00 |
|---|---|
| Airport | Trondheim Airport, Værnes (ENVA) |
| Time | Latitude | Longitude | Altitude | Speed | Heading |
|---|---|---|---|---|---|
| 2026-04-23 08:31 | 62.74573 | 7.25895 | 16 ft | 0 kts | 340° |
| 2026-04-23 08:48 | 62.74574 | 7.25894 | 16 ft | 1 kts | 338° |
| 2026-04-23 08:48 | 62.74568 | 7.25867 | 16 ft | 3 kts | 229° |
| 2026-04-23 08:48 | 62.74529 | 7.25813 | 16 ft | 10 kts | 202° |
| 2026-04-23 08:49 | 62.74506 | 7.25799 | 16 ft | 1 kts | 177° |
| 2026-04-23 08:49 | 62.74485 | 7.25817 | 14 ft | 6 kts | 155° |
| 2026-04-23 08:49 | 62.74432 | 7.25872 | 12 ft | 6 kts | 162° |
| 2026-04-23 08:49 | 62.74415 | 7.25843 | 12 ft | 0 kts | 254° |
| 2026-04-23 08:50 | 62.74414 | 7.25839 | 13 ft | 1 kts | 255° |
| 2026-04-23 08:50 | 62.74408 | 7.25757 | 57 ft | 12 kts | 256° |
| 2026-04-23 08:50 | 62.74361 | 7.25408 | 89 ft | 37 kts | 254° |
| 2026-04-23 08:50 | 62.74276 | 7.24727 | 118 ft | 54 kts | 256° |
| 2026-04-23 08:51 | 62.74210 | 7.23920 | 251 ft | 58 kts | 276° |
| 2026-04-23 08:51 | 62.74154 | 7.22812 | 279 ft | 93 kts | 269° |
| 2026-04-23 08:51 | 62.73966 | 7.21403 | 437 ft | 95 kts | 259° |
| 2026-04-23 08:51 | 62.73749 | 7.20081 | 654 ft | 91 kts | 258° |
| 2026-04-23 08:52 | 62.73539 | 7.18790 | 862 ft | 90 kts | 258° |
| 2026-04-23 08:52 | 62.73334 | 7.17596 | 1142 ft | 80 kts | 257° |
| 2026-04-23 08:52 | 62.73149 | 7.16471 | 1398 ft | 79 kts | 257° |
| 2026-04-23 08:52 | 62.72963 | 7.15376 | 1657 ft | 76 kts | 256° |
| 2026-04-23 08:53 | 62.72780 | 7.14299 | 1920 ft | 76 kts | 255° |
| 2026-04-23 08:53 | 62.72596 | 7.13209 | 2181 ft | 78 kts | 255° |
| 2026-04-23 08:53 | 62.72406 | 7.12102 | 2444 ft | 78 kts | 255° |
| 2026-04-23 08:53 | 62.72215 | 7.10993 | 2710 ft | 78 kts | 255° |
| 2026-04-23 08:54 | 62.71869 | 7.10077 | 2971 ft | 86 kts | 219° |
| 2026-04-23 08:54 | 62.71218 | 7.10131 | 3230 ft | 107 kts | 175° |
| 2026-04-23 08:54 | 62.70634 | 7.11321 | 3488 ft | 126 kts | 131° |
| 2026-04-23 08:54 | 62.70472 | 7.13203 | 3750 ft | 127 kts | 84° |
| 2026-04-23 08:55 | 62.70693 | 7.15027 | 4017 ft | 123 kts | 70° |
| 2026-04-23 08:55 | 62.70960 | 7.16802 | 4279 ft | 122 kts | 68° |
| 2026-04-23 08:55 | 62.71231 | 7.18552 | 4538 ft | 122 kts | 66° |
| 2026-04-23 08:55 | 62.71499 | 7.20297 | 4802 ft | 121 kts | 65° |
| 2026-04-23 08:56 | 62.71761 | 7.22032 | 5066 ft | 120 kts | 65° |
| 2026-04-23 08:56 | 62.72018 | 7.23754 | 5326 ft | 119 kts | 65° |
| 2026-04-23 08:56 | 62.72269 | 7.25467 | 5584 ft | 118 kts | 64° |
| 2026-04-23 08:56 | 62.72520 | 7.27185 | 5836 ft | 119 kts | 63° |
| 2026-04-23 08:57 | 62.72769 | 7.28899 | 6094 ft | 118 kts | 63° |
| 2026-04-23 08:57 | 62.73014 | 7.30610 | 6351 ft | 118 kts | 62° |
| 2026-04-23 08:57 | 62.73260 | 7.32323 | 6614 ft | 119 kts | 60° |
| 2026-04-23 08:57 | 62.73512 | 7.34029 | 6830 ft | 118 kts | 59° |
| 2026-04-23 08:58 | 62.73766 | 7.35719 | 6930 ft | 117 kts | 58° |
| 2026-04-23 08:58 | 62.74029 | 7.37547 | 6956 ft | 138 kts | 62° |
| 2026-04-23 08:58 | 62.74327 | 7.39566 | 6984 ft | 141 kts | 61° |
| 2026-04-23 08:58 | 62.74623 | 7.41610 | 7003 ft | 141 kts | 62° |
| 2026-04-23 08:59 | 62.74917 | 7.43657 | 7011 ft | 142 kts | 62° |
| 2026-04-23 08:59 | 62.75211 | 7.45715 | 7008 ft | 142 kts | 62° |
| 2026-04-23 08:59 | 62.75503 | 7.47773 | 7003 ft | 142 kts | 63° |
| 2026-04-23 08:59 | 62.75794 | 7.49842 | 6999 ft | 143 kts | 63° |
| 2026-04-23 09:00 | 62.76084 | 7.51917 | 6978 ft | 143 kts | 63° |
| 2026-04-23 09:00 | 62.76375 | 7.54008 | 6978 ft | 144 kts | 63° |
| 2026-04-23 09:00 | 62.76665 | 7.56094 | 6981 ft | 144 kts | 63° |
| 2026-04-23 09:00 | 62.76959 | 7.58182 | 6984 ft | 144 kts | 63° |
| 2026-04-23 09:01 | 62.77254 | 7.60263 | 6983 ft | 145 kts | 63° |
| 2026-04-23 09:01 | 62.77560 | 7.62449 | 6973 ft | 154 kts | 64° |
| 2026-04-23 09:01 | 62.77879 | 7.64692 | 6977 ft | 155 kts | 63° |
| 2026-04-23 09:01 | 62.78197 | 7.66945 | 6974 ft | 155 kts | 64° |
| 2026-04-23 09:02 | 62.78514 | 7.69202 | 6975 ft | 155 kts | 64° |
| 2026-04-23 09:02 | 62.78833 | 7.71458 | 6976 ft | 156 kts | 64° |
| 2026-04-23 09:02 | 62.79154 | 7.73714 | 6979 ft | 155 kts | 63° |
| 2026-04-23 09:02 | 62.79475 | 7.75966 | 6959 ft | 155 kts | 64° |
| 2026-04-23 09:03 | 62.79794 | 7.78216 | 6955 ft | 155 kts | 64° |
| 2026-04-23 09:03 | 62.80112 | 7.80464 | 6953 ft | 155 kts | 64° |
| 2026-04-23 09:03 | 62.80430 | 7.82715 | 6957 ft | 155 kts | 63° |
| 2026-04-23 09:03 | 62.80749 | 7.84940 | 6956 ft | 154 kts | 63° |
| 2026-04-23 09:04 | 62.81069 | 7.87201 | 6954 ft | 155 kts | 63° |
| 2026-04-23 09:04 | 62.81387 | 7.89441 | 6956 ft | 154 kts | 63° |
| 2026-04-23 09:04 | 62.81704 | 7.91680 | 6950 ft | 155 kts | 64° |
| 2026-04-23 09:04 | 62.82022 | 7.93928 | 6956 ft | 154 kts | 63° |
| 2026-04-23 09:05 | 62.82339 | 7.96167 | 6956 ft | 155 kts | 63° |
| 2026-04-23 09:05 | 62.82698 | 7.98363 | 6949 ft | 149 kts | 50° |
| 2026-04-23 09:05 | 62.83301 | 8.00120 | 6950 ft | 143 kts | 40° |
| 2026-04-23 09:05 | 62.83934 | 8.01784 | 6957 ft | 141 kts | 39° |
| 2026-04-23 09:06 | 62.84563 | 8.03423 | 6960 ft | 140 kts | 39° |
| 2026-04-23 09:06 | 62.85188 | 8.05072 | 6957 ft | 141 kts | 40° |
| 2026-04-23 09:06 | 62.85813 | 8.06735 | 6952 ft | 141 kts | 40° |
| 2026-04-23 09:06 | 62.86432 | 8.08409 | 6939 ft | 142 kts | 41° |
| 2026-04-23 09:07 | 62.87054 | 8.10108 | 6936 ft | 145 kts | 42° |
| 2026-04-23 09:07 | 62.87683 | 8.11834 | 6944 ft | 145 kts | 40° |
| 2026-04-23 09:07 | 62.88309 | 8.13526 | 6952 ft | 142 kts | 40° |
| 2026-04-23 09:07 | 62.88928 | 8.15210 | 6952 ft | 142 kts | 40° |
| 2026-04-23 09:08 | 62.89545 | 8.16892 | 6975 ft | 141 kts | 39° |
| 2026-04-23 09:08 | 62.90164 | 8.18576 | 6959 ft | 142 kts | 39° |
| 2026-04-23 09:08 | 62.90783 | 8.20281 | 6949 ft | 143 kts | 39° |
| 2026-04-23 09:08 | 62.91403 | 8.21997 | 6944 ft | 143 kts | 39° |
| 2026-04-23 09:09 | 62.92021 | 8.23708 | 6941 ft | 143 kts | 39° |
| 2026-04-23 09:09 | 62.92639 | 8.25432 | 6951 ft | 145 kts | 40° |
| 2026-04-23 09:09 | 62.93269 | 8.27192 | 6945 ft | 147 kts | 39° |
| 2026-04-23 09:09 | 62.93904 | 8.28956 | 6947 ft | 147 kts | 39° |
| 2026-04-23 09:10 | 62.94325 | 8.30130 | 6950 ft | 148 kts | 40° |
| 2026-04-23 09:10 | 62.95601 | 8.33695 | 6946 ft | 146 kts | 40° |
| 2026-04-23 09:10 | 62.96230 | 8.35445 | 6947 ft | 146 kts | 40° |
| 2026-04-23 09:11 | 62.96859 | 8.37198 | 6945 ft | 146 kts | 40° |
| 2026-04-23 09:11 | 62.97487 | 8.38957 | 6933 ft | 147 kts | 41° |
| 2026-04-23 09:11 | 62.98116 | 8.40764 | 6926 ft | 151 kts | 41° |
| 2026-04-23 09:11 | 62.98759 | 8.42560 | 6939 ft | 149 kts | 39° |
| 2026-04-23 09:12 | 62.99397 | 8.44344 | 6927 ft | 152 kts | 40° |
| 2026-04-23 09:12 | 63.00059 | 8.46248 | 6917 ft | 156 kts | 39° |
| 2026-04-23 09:12 | 63.00727 | 8.48074 | 6946 ft | 149 kts | 38° |
| 2026-04-23 09:12 | 63.01366 | 8.49823 | 6950 ft | 146 kts | 39° |
| 2026-04-23 09:13 | 63.01988 | 8.51541 | 6941 ft | 146 kts | 39° |
| 2026-04-23 09:13 | 63.02615 | 8.53307 | 6935 ft | 147 kts | 40° |
| 2026-04-23 09:13 | 63.03242 | 8.55065 | 6938 ft | 145 kts | 39° |
| 2026-04-23 09:13 | 63.03874 | 8.56851 | 6927 ft | 146 kts | 40° |
| 2026-04-23 09:14 | 63.04501 | 8.58621 | 6934 ft | 146 kts | 40° |
| 2026-04-23 09:14 | 63.05130 | 8.60382 | 6940 ft | 146 kts | 40° |
| 2026-04-23 09:14 | 63.05735 | 8.62081 | 6940 ft | 146 kts | 39° |
| 2026-04-23 09:14 | 63.06363 | 8.63851 | 6938 ft | 147 kts | 40° |
| 2026-04-23 09:15 | 63.06989 | 8.65621 | 6934 ft | 146 kts | 40° |
| 2026-04-23 09:15 | 63.07611 | 8.67386 | 6927 ft | 146 kts | 41° |
| 2026-04-23 09:15 | 63.08235 | 8.69157 | 6937 ft | 145 kts | 39° |
| 2026-04-23 09:15 | 63.08854 | 8.70915 | 6936 ft | 146 kts | 40° |
| 2026-04-23 09:16 | 63.09478 | 8.72680 | 6936 ft | 146 kts | 39° |
| 2026-04-23 09:16 | 63.10104 | 8.74436 | 6942 ft | 145 kts | 39° |
| 2026-04-23 09:16 | 63.10719 | 8.76167 | 6934 ft | 145 kts | 39° |
| 2026-04-23 09:16 | 63.11340 | 8.77933 | 6955 ft | 146 kts | 40° |
| 2026-04-23 09:17 | 63.11964 | 8.79729 | 6966 ft | 148 kts | 40° |
| 2026-04-23 09:17 | 63.12587 | 8.81533 | 6979 ft | 149 kts | 45° |
| 2026-04-23 09:17 | 63.12822 | 8.83872 | 6995 ft | 168 kts | 84° |
| 2026-04-23 09:17 | 63.12753 | 8.86461 | 6978 ft | 171 kts | 90° |
| 2026-04-23 09:18 | 63.12653 | 8.89092 | 6984 ft | 172 kts | 88° |
| 2026-04-23 09:18 | 63.12571 | 8.91673 | 6996 ft | 170 kts | 88° |
| 2026-04-23 09:18 | 63.12486 | 8.94270 | 6986 ft | 171 kts | 88° |
| 2026-04-23 09:18 | 63.12407 | 8.96891 | 6993 ft | 171 kts | 86° |
| 2026-04-23 09:19 | 63.12344 | 8.99496 | 6993 ft | 169 kts | 87° |
| 2026-04-23 09:19 | 63.12269 | 9.02095 | 6980 ft | 170 kts | 87° |
| 2026-04-23 09:19 | 63.12204 | 9.04702 | 6989 ft | 170 kts | 86° |
| 2026-04-23 09:19 | 63.12151 | 9.07303 | 6996 ft | 169 kts | 85° |
| 2026-04-23 09:20 | 63.12097 | 9.09939 | 7003 ft | 170 kts | 84° |
| 2026-04-23 09:20 | 63.12046 | 9.12544 | 6986 ft | 170 kts | 84° |
| 2026-04-23 09:20 | 63.11986 | 9.15121 | 6973 ft | 171 kts | 86° |
| 2026-04-23 09:20 | 63.11921 | 9.17781 | 6974 ft | 172 kts | 85° |
| 2026-04-23 09:21 | 63.11868 | 9.20401 | 6980 ft | 171 kts | 84° |
| 2026-04-23 09:21 | 63.11813 | 9.23017 | 6977 ft | 170 kts | 85° |
| 2026-04-23 09:21 | 63.11755 | 9.25627 | 6973 ft | 170 kts | 86° |
| 2026-04-23 09:21 | 63.11693 | 9.28240 | 6973 ft | 171 kts | 85° |
| 2026-04-23 09:22 | 63.11637 | 9.30862 | 6982 ft | 171 kts | 84° |
| 2026-04-23 09:22 | 63.11582 | 9.33482 | 6979 ft | 171 kts | 84° |
| 2026-04-23 09:22 | 63.11526 | 9.36105 | 6982 ft | 171 kts | 84° |
| 2026-04-23 09:22 | 63.11468 | 9.38718 | 6963 ft | 171 kts | 84° |
| 2026-04-23 09:23 | 63.11408 | 9.41340 | 6962 ft | 171 kts | 84° |
| 2026-04-23 09:23 | 63.11349 | 9.43957 | 6962 ft | 171 kts | 84° |
| 2026-04-23 09:23 | 63.11288 | 9.46574 | 6959 ft | 171 kts | 85° |
| 2026-04-23 09:23 | 63.11218 | 9.49195 | 6948 ft | 172 kts | 86° |
| 2026-04-23 09:24 | 63.11151 | 9.51822 | 6953 ft | 171 kts | 84° |
| 2026-04-23 09:24 | 63.11088 | 9.54443 | 6958 ft | 171 kts | 84° |
| 2026-04-23 09:24 | 63.11025 | 9.57074 | 6962 ft | 171 kts | 84° |
| 2026-04-23 09:24 | 63.10964 | 9.59698 | 6963 ft | 171 kts | 84° |
| 2026-04-23 09:25 | 63.10898 | 9.62311 | 6971 ft | 171 kts | 85° |
| 2026-04-23 09:25 | 63.10936 | 9.64883 | 6971 ft | 163 kts | 71° |
| 2026-04-23 09:25 | 63.11128 | 9.67325 | 6961 ft | 162 kts | 69° |
| 2026-04-23 09:25 | 63.11330 | 9.69792 | 6947 ft | 162 kts | 68° |
| 2026-04-23 09:26 | 63.11563 | 9.72204 | 6951 ft | 158 kts | 60° |
| 2026-04-23 09:26 | 63.11928 | 9.74458 | 6958 ft | 155 kts | 57° |
| 2026-04-23 09:26 | 63.12298 | 9.76683 | 6952 ft | 154 kts | 58° |
| 2026-04-23 09:26 | 63.12662 | 9.78914 | 6949 ft | 155 kts | 58° |
| 2026-04-23 09:27 | 63.13026 | 9.81160 | 6944 ft | 155 kts | 58° |
| 2026-04-23 09:27 | 63.13387 | 9.83417 | 6946 ft | 156 kts | 59° |
| 2026-04-23 09:27 | 63.13743 | 9.85678 | 6961 ft | 155 kts | 60° |
| 2026-04-23 09:27 | 63.14093 | 9.87933 | 6951 ft | 155 kts | 60° |
| 2026-04-23 09:28 | 63.14441 | 9.90186 | 6954 ft | 154 kts | 60° |
| 2026-04-23 09:28 | 63.14788 | 9.92431 | 6955 ft | 154 kts | 61° |
| 2026-04-23 09:28 | 63.15132 | 9.94686 | 6949 ft | 155 kts | 61° |
| 2026-04-23 09:28 | 63.15476 | 9.96937 | 6948 ft | 154 kts | 61° |
| 2026-04-23 09:29 | 63.15817 | 9.99183 | 6943 ft | 155 kts | 61° |
| 2026-04-23 09:29 | 63.16157 | 10.01452 | 6944 ft | 156 kts | 61° |
| 2026-04-23 09:29 | 63.16501 | 10.03721 | 6949 ft | 155 kts | 61° |
| 2026-04-23 09:29 | 63.16842 | 10.05962 | 6948 ft | 154 kts | 61° |
| 2026-04-23 09:30 | 63.17181 | 10.08203 | 6945 ft | 153 kts | 61° |
| 2026-04-23 09:30 | 63.17518 | 10.10444 | 6945 ft | 154 kts | 61° |
| 2026-04-23 09:30 | 63.17857 | 10.12697 | 6948 ft | 154 kts | 60° |
| 2026-04-23 09:30 | 63.18196 | 10.14951 | 6946 ft | 154 kts | 61° |
| 2026-04-23 09:31 | 63.18534 | 10.17203 | 6949 ft | 154 kts | 61° |
| 2026-04-23 09:31 | 63.18868 | 10.19438 | 6942 ft | 156 kts | 62° |
| 2026-04-23 09:31 | 63.19206 | 10.21745 | 6937 ft | 158 kts | 62° |
| 2026-04-23 09:31 | 63.19547 | 10.24044 | 6944 ft | 156 kts | 60° |
| 2026-04-23 09:32 | 63.19889 | 10.26306 | 6950 ft | 155 kts | 61° |
| 2026-04-23 09:32 | 63.20228 | 10.28566 | 6961 ft | 155 kts | 62° |
| 2026-04-23 09:32 | 63.20565 | 10.30831 | 6981 ft | 155 kts | 61° |
| 2026-04-23 09:32 | 63.20904 | 10.33098 | 6993 ft | 155 kts | 61° |
| 2026-04-23 09:33 | 63.21241 | 10.35360 | 7002 ft | 155 kts | 61° |
| 2026-04-23 09:33 | 63.21576 | 10.37632 | 7000 ft | 155 kts | 61° |
| 2026-04-23 09:33 | 63.21917 | 10.39935 | 7003 ft | 155 kts | 61° |
| 2026-04-23 09:33 | 63.22249 | 10.42176 | 7006 ft | 155 kts | 61° |
| 2026-04-23 09:34 | 63.22590 | 10.44473 | 7001 ft | 155 kts | 61° |
| 2026-04-23 09:34 | 63.22920 | 10.46688 | 7008 ft | 154 kts | 60° |
| 2026-04-23 09:34 | 63.23257 | 10.48936 | 7006 ft | 154 kts | 61° |
| 2026-04-23 09:34 | 63.23590 | 10.51197 | 6997 ft | 155 kts | 61° |
| 2026-04-23 09:35 | 63.23922 | 10.53471 | 7001 ft | 155 kts | 61° |
| 2026-04-23 09:35 | 63.24254 | 10.55740 | 7002 ft | 155 kts | 62° |
| 2026-04-23 09:35 | 63.24576 | 10.57949 | 6998 ft | 156 kts | 62° |
| 2026-04-23 09:35 | 63.24911 | 10.60235 | 6982 ft | 155 kts | 60° |
| 2026-04-23 09:36 | 63.25247 | 10.62495 | 6889 ft | 154 kts | 61° |
| 2026-04-23 09:36 | 63.25575 | 10.64732 | 6811 ft | 154 kts | 62° |
| 2026-04-23 09:36 | 63.25909 | 10.67022 | 6739 ft | 154 kts | 61° |
| 2026-04-23 09:36 | 63.26240 | 10.69277 | 6705 ft | 152 kts | 62° |
| 2026-04-23 09:37 | 63.26565 | 10.71522 | 6618 ft | 154 kts | 62° |
| 2026-04-23 09:37 | 63.26886 | 10.73738 | 6542 ft | 155 kts | 62° |
| 2026-04-23 09:37 | 63.27215 | 10.76014 | 6457 ft | 155 kts | 62° |
| 2026-04-23 09:37 | 63.27545 | 10.78308 | 6362 ft | 157 kts | 63° |
| 2026-04-23 09:38 | 63.27876 | 10.80620 | 6284 ft | 156 kts | 62° |
| 2026-04-23 09:38 | 63.28208 | 10.82924 | 6192 ft | 158 kts | 63° |
| 2026-04-23 09:38 | 63.28545 | 10.85240 | 6120 ft | 158 kts | 63° |
| 2026-04-23 09:38 | 63.28884 | 10.87580 | 6051 ft | 160 kts | 63° |
| 2026-04-23 09:39 | 63.29224 | 10.89926 | 6025 ft | 159 kts | 63° |
| 2026-04-23 09:39 | 63.29562 | 10.92271 | 6005 ft | 159 kts | 63° |
| 2026-04-23 09:39 | 63.29900 | 10.94609 | 6000 ft | 158 kts | 63° |
| 2026-04-23 09:39 | 63.30233 | 10.96929 | 5994 ft | 158 kts | 63° |
| 2026-04-23 09:40 | 63.30567 | 10.99256 | 5990 ft | 158 kts | 63° |
| 2026-04-23 09:40 | 63.30897 | 11.01603 | 5980 ft | 161 kts | 65° |
| 2026-04-23 09:40 | 63.31236 | 11.03986 | 5992 ft | 162 kts | 63° |
| 2026-04-23 09:40 | 63.31582 | 11.06367 | 6004 ft | 163 kts | 65° |
| 2026-04-23 09:41 | 63.31929 | 11.08779 | 5994 ft | 165 kts | 66° |
| 2026-04-23 09:41 | 63.32275 | 11.11183 | 6002 ft | 161 kts | 64° |
| 2026-04-23 09:41 | 63.32614 | 11.13551 | 5993 ft | 161 kts | 65° |
| 2026-04-23 09:41 | 63.32953 | 11.15931 | 5993 ft | 161 kts | 65° |
| 2026-04-23 09:42 | 63.33290 | 11.18317 | 5993 ft | 162 kts | 65° |
| 2026-04-23 09:42 | 63.33632 | 11.20712 | 5991 ft | 163 kts | 65° |
| 2026-04-23 09:42 | 63.33972 | 11.23127 | 5997 ft | 163 kts | 65° |
| 2026-04-23 09:42 | 63.34317 | 11.25523 | 6001 ft | 162 kts | 65° |
| 2026-04-23 09:43 | 63.34655 | 11.27909 | 5996 ft | 162 kts | 65° |
| 2026-04-23 09:43 | 63.34993 | 11.30294 | 5994 ft | 161 kts | 65° |
| 2026-04-23 09:43 | 63.35328 | 11.32676 | 5996 ft | 161 kts | 65° |
| 2026-04-23 09:43 | 63.35662 | 11.35045 | 5988 ft | 161 kts | 65° |
| 2026-04-23 09:44 | 63.35995 | 11.37428 | 5984 ft | 161 kts | 66° |
| 2026-04-23 09:44 | 63.36329 | 11.39815 | 5987 ft | 161 kts | 65° |
| 2026-04-23 09:44 | 63.36662 | 11.42204 | 5984 ft | 162 kts | 66° |
| 2026-04-23 09:44 | 63.36994 | 11.44608 | 5987 ft | 162 kts | 65° |
| 2026-04-23 09:45 | 63.37331 | 11.47003 | 5986 ft | 162 kts | 65° |
| 2026-04-23 09:45 | 63.37665 | 11.49409 | 5985 ft | 162 kts | 65° |
| 2026-04-23 09:45 | 63.38036 | 11.51760 | 6013 ft | 155 kts | 49° |
| 2026-04-23 09:45 | 63.38718 | 11.53268 | 5968 ft | 122 kts | 10° |
| 2026-04-23 09:46 | 63.39436 | 11.53423 | 5849 ft | 95 kts | 334° |
| 2026-04-23 09:46 | 63.40053 | 11.52912 | 5687 ft | 96 kts | 333° |
| 2026-04-23 09:46 | 63.40686 | 11.52376 | 5553 ft | 97 kts | 332° |
| 2026-04-23 09:46 | 63.41331 | 11.51835 | 5378 ft | 101 kts | 332° |
| 2026-04-23 09:47 | 63.41999 | 11.51290 | 5245 ft | 103 kts | 331° |
| 2026-04-23 09:47 | 63.42670 | 11.50732 | 5131 ft | 103 kts | 330° |
| 2026-04-23 09:47 | 63.43354 | 11.50176 | 4998 ft | 106 kts | 331° |
| 2026-04-23 09:47 | 63.44047 | 11.49620 | 4878 ft | 105 kts | 330° |
| 2026-04-23 09:48 | 63.44714 | 11.49021 | 4776 ft | 100 kts | 319° |
| 2026-04-23 09:48 | 63.45045 | 11.47794 | 4711 ft | 94 kts | 281° |
| 2026-04-23 09:48 | 63.45085 | 11.46354 | 4708 ft | 93 kts | 279° |
| 2026-04-23 09:48 | 63.45114 | 11.44921 | 4700 ft | 93 kts | 278° |
| 2026-04-23 09:49 | 63.45123 | 11.43479 | 4694 ft | 93 kts | 278° |
| 2026-04-23 09:49 | 63.45148 | 11.42047 | 4692 ft | 91 kts | 286° |
| 2026-04-23 09:49 | 63.45278 | 11.40649 | 4662 ft | 90 kts | 282° |
| 2026-04-23 09:49 | 63.45339 | 11.39444 | 4606 ft | 72 kts | 284° |
| 2026-04-23 09:50 | 63.45392 | 11.38353 | 4521 ft | 70 kts | 284° |
| 2026-04-23 09:50 | 63.45426 | 11.37617 | 4464 ft | 70 kts | 283° |
| 2026-04-23 09:50 | 63.45468 | 11.36538 | 4378 ft | 70 kts | 284° |
| 2026-04-23 09:50 | 63.45506 | 11.35466 | 4295 ft | 70 kts | 282° |
| 2026-04-23 09:51 | 63.45537 | 11.34388 | 4196 ft | 69 kts | 282° |
| 2026-04-23 09:51 | 63.45569 | 11.33327 | 4089 ft | 69 kts | 283° |
| 2026-04-23 09:51 | 63.45598 | 11.32264 | 4034 ft | 69 kts | 283° |
| 2026-04-23 09:51 | 63.45624 | 11.31190 | 4008 ft | 68 kts | 283° |
| 2026-04-23 09:52 | 63.45645 | 11.30133 | 4009 ft | 69 kts | 281° |
| 2026-04-23 09:52 | 63.45659 | 11.29050 | 3907 ft | 68 kts | 280° |
| 2026-04-23 09:52 | 63.45670 | 11.28001 | 3745 ft | 67 kts | 281° |
| 2026-04-23 09:52 | 63.45681 | 11.26961 | 3578 ft | 66 kts | 282° |
| 2026-04-23 09:53 | 63.45701 | 11.25909 | 3422 ft | 69 kts | 280° |
| 2026-04-23 09:53 | 63.45708 | 11.24836 | 3319 ft | 69 kts | 278° |
| 2026-04-23 09:53 | 63.45714 | 11.23767 | 3192 ft | 69 kts | 278° |
| 2026-04-23 09:53 | 63.45718 | 11.22694 | 3092 ft | 69 kts | 278° |
| 2026-04-23 09:54 | 63.45719 | 11.21651 | 2967 ft | 68 kts | 280° |
| 2026-04-23 09:54 | 63.45725 | 11.20559 | 2868 ft | 70 kts | 278° |
| 2026-04-23 09:54 | 63.45723 | 11.19490 | 2751 ft | 68 kts | 279° |
| 2026-04-23 09:54 | 63.45728 | 11.18431 | 2620 ft | 69 kts | 279° |
| 2026-04-23 09:55 | 63.45739 | 11.17348 | 2474 ft | 72 kts | 283° |
| 2026-04-23 09:55 | 63.45745 | 11.16216 | 2383 ft | 72 kts | 278° |
| 2026-04-23 09:55 | 63.45745 | 11.15090 | 2268 ft | 73 kts | 278° |
| 2026-04-23 09:55 | 63.45745 | 11.13965 | 2165 ft | 72 kts | 276° |
| 2026-04-23 09:56 | 63.45742 | 11.12856 | 2057 ft | 71 kts | 277° |
| 2026-04-23 09:56 | 63.45742 | 11.11745 | 1935 ft | 72 kts | 277° |
| 2026-04-23 09:56 | 63.45745 | 11.10612 | 1816 ft | 74 kts | 277° |
| 2026-04-23 09:56 | 63.45746 | 11.09452 | 1698 ft | 75 kts | 276° |
| 2026-04-23 09:57 | 63.45747 | 11.08271 | 1566 ft | 76 kts | 276° |
| 2026-04-23 09:57 | 63.45748 | 11.07097 | 1437 ft | 75 kts | 277° |
| 2026-04-23 09:57 | 63.45750 | 11.05926 | 1311 ft | 75 kts | 277° |
| 2026-04-23 09:57 | 63.45751 | 11.04767 | 1188 ft | 74 kts | 277° |
| 2026-04-23 09:58 | 63.45753 | 11.03608 | 1065 ft | 75 kts | 276° |
| 2026-04-23 09:58 | 63.45755 | 11.02439 | 943 ft | 75 kts | 275° |
| 2026-04-23 09:58 | 63.45756 | 11.01263 | 821 ft | 77 kts | 276° |
| 2026-04-23 09:58 | 63.45758 | 11.00008 | 704 ft | 82 kts | 274° |
| 2026-04-23 09:59 | 63.45755 | 10.98773 | 587 ft | 76 kts | 274° |
| 2026-04-23 09:59 | 63.45755 | 10.97657 | 469 ft | 68 kts | 277° |
| 2026-04-23 09:59 | 63.45756 | 10.96680 | 371 ft | 57 kts | 278° |
| 2026-04-23 09:59 | 63.45760 | 10.95786 | 276 ft | 58 kts | 275° |
| 2026-04-23 10:00 | 63.45762 | 10.94902 | 163 ft | 58 kts | 276° |
| 2026-04-23 10:00 | 63.45764 | 10.93986 | 98 ft | 58 kts | 274° |
| 2026-04-23 10:00 | 63.45764 | 10.93160 | 80 ft | 49 kts | 275° |
| 2026-04-23 10:00 | 63.45757 | 10.92496 | 58 ft | 29 kts | 242° |
| 2026-04-23 10:01 | 63.45610 | 10.92423 | 40 ft | 26 kts | 188° |
| 2026-04-23 10:01 | 63.45434 | 10.92435 | 42 ft | 22 kts | 185° |
| 2026-04-23 10:01 | 63.45330 | 10.92427 | 35 ft | 12 kts | 182° |
| 2026-04-23 10:01 | 63.45266 | 10.92447 | 35 ft | 7 kts | 155° |
| 2026-04-23 10:02 | 63.45267 | 10.92493 | 35 ft | 3 kts | 15° |
| 2026-04-23 10:02 | 63.45274 | 10.92494 | 35 ft | 0 kts | 5° |